Galena, Nevada Weather observations

Data are for 60 minute period ending nearest time listed.
 Day   Time    Ave.   Ave.  Ave.  Vector   Max.   Total    Solar   
  of    of     Air    Rel.  Wind   Wind    Wind  Precip.   Rad.    
Year   Day     Temp.  Hum.  Speed  Dir.    Gust                    
2026   (PST)    F      %     mph   deg.    mph     in.     W/m2    
------------------------------------------------------------------- 
 242   15:00   81.0    14    8.0     8     17.0    2.02     719  
 242   16:00   81.0    14    6.0    39     20.0    2.02     544  
 242   17:00   80.0    16    4.0   250     15.0    2.02     377  
 242   18:00   76.0    21    5.0   277     12.0    2.02      88  
 242   19:00   71.0    25    7.0   284     16.0    2.02      13  
 242   20:00   68.0    30    6.0   236      9.0    2.02       0  
 242   21:00   64.0    35    4.0   244      9.0    2.02       0  
 242   22:00   63.0    34    5.0   254      9.0    2.02       0  
 242   23:00   61.0    35    2.0   272      7.0    2.02       0  
 243    0:00   60.0    36    2.0   257      5.0    2.02       0  
 243    1:00   58.0    39    3.0   226      6.0    2.02       0  
 243    2:00   59.0    36    2.0   265      7.0    2.02       0  
 243    3:00   58.0    36    3.0   275      5.0    2.02       0  
 243    4:00   57.0    36    1.0   284      5.0    2.02       0  
 243    5:00   57.0    35    2.0   285      4.0    2.02       0  
 243    6:00   56.0    36    3.0   265      4.0    2.02       6  
 243    7:00   66.0    28    0.0    64      3.0    2.02     123  
 243    8:00   70.0    26    3.0   156      4.0    2.02     320  
 243    9:00   72.0    24    3.0   114      7.0    2.02     511  
 243   10:00   75.0    24    4.0   110      9.0    2.02     671  
 243   11:00   79.0    16    5.0   146     11.0    2.02     790  
 243   12:00   80.0    14    8.0   180     16.0    2.02     854  
 243   13:00   82.0    15    7.0   168     16.0    2.02     860  
 243   14:00   82.0    14    8.0   244     19.0    2.02     819  

Return to Galena, Nevada graphs page.


Western Regional Climate Center,wrcc@dri.edu